National Weather Service United States Department of Commerce

SFO Marine Stratus Forecast System

Last refreshed: 1135Z Refresh page

Approach Clear

CWSU Oakland Forecast

Pending CWSU Input


 


Details

Model Forecast

Approach clear at N/A GMT

Component models:

COBELN/A
LocalN/A
RegionalN/A
SatelliteN/A

Winter Mode Model quality indicator

Reliability reason:
Model quality: n/a

Forecasts return May 15


Probability of clearing by:

17Z 18Z 19Z 20Z
-- -- -- --

Details

WFO Monterey Discussion

Terminal: VFR conditions are expected to prevail through around 1200z at which point bkn-ovc008 will be possible. First guess at the morning burn off is 1700z. Confidence is moderate.

Approach: Similar to the terminal.

Updated Sun Apr 19 05:50Z


Details

Satellite image
Click to loop

Observations

Time Temp Dew Wind Clouds Vis

SFO

Sky cover icon11255046CALM05 FEW  10

SMB

Sky cover icon112648452503CLR  10

Terminal Forecast

KSFO 181120Z 1812/1918 29003KT P6SM SCT008
       TEMPO 1812/1816 BKN008
      FM181700 04005KT P6SM SCT008
      FM181900 31010KT P6SM FEW010
      FM182300 30015G20KT P6SM FEW010
      FM190400 29012KT P6SM FEW010
					

More